Time;durP1;ratioP1;P1;durP2;ratioP2;P2;SDS_P1;SDS_P2;PMS_P1;PMS_P2;Temp;Humidity;BMP_temperature;BMP_pressure;BME280_temperature;BME280_humidity;BME280_pressure;Samples;Min_cycle;Max_cycle;Signal;HPM_P1;HPM_P2
2021/07/14 00:02:26;;;;;;;20.05;15.48;;;;;;;20.02;73.08;96741.42;1753797;80;26148;-84
2021/07/14 00:04:52;;;;;;;18.98;15.00;;;;;;;20.01;73.06;96743.90;1754161;80;25509;-85
2021/07/14 00:07:19;;;;;;;17.87;15.63;;;;;;;19.99;73.05;96746.10;1769396;80;28346;-85
2021/07/14 00:09:45;;;;;;;16.62;14.63;;;;;;;19.92;73.14;96745.63;1763056;80;25814;-85
2021/07/14 00:12:14;;;;;;;20.20;15.13;;;;;;;19.89;73.25;96741.53;1784853;79;25764;-86
2021/07/14 00:22:30;;;;;;;18.32;15.93;;;;;;;19.85;73.36;96738.27;1744988;80;25706;-85
2021/07/14 00:24:57;;;;;;;20.00;15.83;;;;;;;19.80;73.46;96733.67;1768022;80;25668;-84
2021/07/14 00:27:24;;;;;;;20.50;16.00;;;;;;;19.72;73.51;96737.00;1776115;80;25654;-85
2021/07/14 00:29:56;;;;;;;25.05;16.25;;;;;;;19.71;73.69;96738.92;1775877;80;25746;-85
2021/07/14 00:32:24;;;;;;;19.27;16.12;;;;;;;19.66;73.67;96733.50;1765108;80;27549;-85
2021/07/14 00:34:52;;;;;;;23.55;14.85;;;;;;;19.61;73.83;96723.95;1775571;80;26582;-84
2021/07/14 00:37:19;;;;;;;18.75;15.65;;;;;;;19.64;73.97;96727.49;1776028;80;26424;-85
2021/07/14 00:39:47;;;;;;;25.92;15.98;;;;;;;19.65;73.92;96725.58;1745292;80;25746;-85
2021/07/14 00:42:14;;;;;;;23.80;16.10;;;;;;;19.61;73.93;96723.13;1775812;80;25854;-83
2021/07/14 00:44:41;;;;;;;19.00;16.48;;;;;;;19.55;74.03;96721.55;1776011;80;28143;-86
2021/07/14 00:47:08;;;;;;;18.98;16.25;;;;;;;19.43;74.03;96716.41;1775663;80;26316;-85
2021/07/14 00:49:35;;;;;;;22.10;16.90;;;;;;;19.34;74.20;96722.19;1776075;80;25987;-85
2021/07/14 00:52:02;;;;;;;34.03;17.20;;;;;;;19.30;74.43;96715.66;1775713;80;25566;-85
2021/07/14 00:54:28;;;;;;;20.72;16.12;;;;;;;19.28;74.55;96720.59;1776054;80;26303;-86
2021/07/14 00:56:55;;;;;;;20.50;17.35;;;;;;;19.26;74.64;96725.53;1737698;80;27523;-84
2021/07/14 00:59:22;;;;;;;23.40;18.27;;;;;;;19.28;74.80;96727.44;1761753;80;25848;-84
2021/07/14 01:01:48;;;;;;;19.40;17.40;;;;;;;19.30;74.81;96730.72;1775890;80;25768;-86
2021/07/14 01:04:32;;;;;;;23.12;17.57;;;;;;;19.34;74.89;96724.92;1775665;80;25702;-85
2021/07/14 01:07:48;;;;;;;23.98;16.90;;;;;;;19.37;74.89;96722.99;1776175;80;25642;-86
2021/07/14 01:10:33;;;;;;;21.70;17.48;;;;;;;19.41;74.87;96730.91;1775700;80;27449;-86
2021/07/14 01:13:24;;;;;;;21.80;17.87;;;;;;;19.40;74.79;96732.02;1770724;80;25696;-85
2021/07/14 01:16:07;;;;;;;24.15;16.50;;;;;;;19.40;74.82;96727.36;1726586;80;25337;-84
2021/07/14 01:18:39;;;;;;;;;;;;;;;19.41;74.82;96730.36;1778602;80;25732;-85
2021/07/14 01:21:34;;;;;;;21.37;16.32;;;;;;;19.41;74.95;96734.47;1775867;80;25657;-84
2021/07/14 01:24:24;;;;;;;19.10;16.20;;;;;;;19.36;74.76;96731.75;1775922;80;27390;-84
2021/07/14 01:27:11;;;;;;;19.90;17.25;;;;;;;19.31;74.72;96728.25;1774967;80;25904;-84
2021/07/14 01:29:55;;;;;;;20.92;16.23;;;;;;;19.28;74.76;96732.36;1775905;80;25654;-84
2021/07/14 01:32:28;;;;;;;17.42;15.58;;;;;;;19.24;74.85;96731.83;1775191;80;26352;-83
2021/07/14 01:35:12;;;;;;;18.32;16.15;;;;;;;19.22;74.88;96731.29;1776164;80;25858;-85
2021/07/14 01:37:43;;;;;;;25.57;16.90;;;;;;;19.21;74.92;96728.28;1774852;80;28152;-84
2021/07/14 01:40:11;;;;;;;18.75;16.62;;;;;;;19.14;74.88;96734.62;1749372;80;25960;-86
2021/07/14 01:42:39;;;;;;;23.55;16.67;;;;;;;19.15;74.99;96731.61;1765085;80;25705;-84
2021/07/14 01:45:07;;;;;;;22.50;16.37;;;;;;;19.17;75.04;96728.60;1773589;79;25701;-85
2021/07/14 01:47:35;;;;;;;20.85;16.57;;;;;;;19.10;74.94;96730.81;1775459;80;25805;-87
2021/07/14 01:50:05;;;;;;;19.12;17.02;;;;;;;19.02;75.05;96722.11;1772710;80;27612;-87
2021/07/14 01:52:33;;;;;;;19.05;16.97;;;;;;;19.04;75.22;96720.46;1758229;80;25841;-86
2021/07/14 01:55:04;;;;;;;19.67;17.50;;;;;;;19.04;75.23;96722.66;1776077;80;25749;-84
2021/07/14 01:57:33;;;;;;;26.73;17.52;;;;;;;18.99;75.20;96721.84;1713919;80;26286;-84
2021/07/14 02:00:02;;;;;;;19.37;17.37;;;;;;;18.97;75.31;96724.04;1775474;80;25740;-84
2021/07/14 02:02:33;;;;;;;21.23;17.60;;;;;;;18.96;75.34;96723.22;1776035;80;27613;-85
2021/07/14 02:04:59;;;;;;;24.32;17.85;;;;;;;18.96;75.37;96724.59;1775623;80;25696;-85
2021/07/14 02:07:28;;;;;;;23.07;17.60;;;;;;;18.97;75.35;96723.48;1776090;80;25281;-88
2021/07/14 02:09:56;;;;;;;22.93;16.32;;;;;;;18.95;75.34;96725.72;1775203;80;25689;-87
2021/07/14 02:12:28;;;;;;;20.88;17.17;;;;;;;18.92;75.32;96727.63;1776152;80;25757;-87
2021/07/14 02:15:05;;;;;;;22.10;16.07;;;;;;;18.91;75.33;96731.47;1775746;80;28434;-87
2021/07/14 02:17:52;;;;;;;19.27;16.32;;;;;;;18.85;75.23;96727.10;1755899;80;25936;-86
2021/07/14 02:20:20;;;;;;;23.00;17.27;;;;;;;18.74;75.25;96724.69;1774774;79;26173;-88
2021/07/14 02:22:49;;;;;;;25.35;17.05;;;;;;;18.64;75.50;96718.17;1781865;80;25564;-87
2021/07/14 02:25:17;;;;;;;22.73;16.60;;;;;;;18.68;75.67;96722.55;1780974;79;25793;-89
2021/07/14 02:27:44;;;;;;;20.43;17.70;;;;;;;18.65;75.69;96717.63;1781476;80;27573;-88
2021/07/14 02:30:21;;;;;;;24.60;19.20;;;;;;;18.56;75.67;96719.28;1781652;80;25201;-88
2021/07/14 02:32:52;;;;;;;19.20;17.20;;;;;;;18.52;75.82;96722.29;1781587;80;25749;-88
2021/07/14 02:35:19;;;;;;;22.90;17.98;;;;;;;18.45;75.94;96731.34;1781826;79;26242;-85
2021/07/14 02:37:54;;;;;;;24.82;17.48;;;;;;;18.41;76.04;96734.34;1781647;79;25786;-87
2021/07/14 02:40:45;;;;;;;24.47;18.48;;;;;;;18.42;76.19;96738.17;1740595;80;28175;-87
2021/07/14 02:43:13;;;;;;;20.95;16.77;;;;;;;18.46;76.25;96737.90;1781217;80;25845;-87
2021/07/14 02:45:48;;;;;;;22.40;17.42;;;;;;;18.50;76.25;96738.95;1780908;79;25779;-88
2021/07/14 02:48:14;;;;;;;18.42;16.52;;;;;;;18.49;76.16;96737.87;1778856;80;25745;-88
2021/07/14 02:50:43;;;;;;;20.80;16.48;;;;;;;18.49;76.14;96726.94;1781854;80;25203;-88
2021/07/14 02:53:17;;;;;;;18.98;17.00;;;;;;;18.50;76.09;96733.49;1759534;80;27369;-89
2021/07/14 02:55:48;;;;;;;19.85;16.97;;;;;;;18.51;76.10;96737.05;1781283;80;25772;-88
2021/07/14 02:58:15;;;;;;;22.87;17.85;;;;;;;18.45;76.11;96736.26;1776133;80;25704;-88
2021/07/14 03:00:43;;;;;;;20.62;16.80;;;;;;;18.45;76.22;96736.26;1779726;79;26333;-87
2021/07/14 03:03:12;;;;;;;24.30;17.80;;;;;;;18.46;76.14;96744.73;1790510;80;25270;-89
2021/07/14 03:05:39;;;;;;;26.17;16.80;;;;;;;18.46;76.25;96739.27;1790033;79;27421;-88
2021/07/14 03:08:13;;;;;;;20.68;16.25;;;;;;;18.47;76.25;96737.35;1790366;77;25687;-88
2021/07/14 03:10:35;;;;;;;22.62;17.05;;;;;;;18.47;76.22;96745.55;1789109;80;25658;-88
2021/07/14 03:13:04;;;;;;;20.48;15.65;;;;;;;18.47;76.23;96745.55;1768481;80;25716;-88
2021/07/14 03:15:32;;;;;;;24.00;16.50;;;;;;;18.47;76.25;96742.81;1790067;80;25739;-89
2021/07/14 03:18:01;;;;;;;21.05;17.12;;;;;;;18.47;76.29;96734.62;1761034;80;27451;-88
2021/07/14 03:20:27;;;;;;;23.12;17.17;;;;;;;18.49;76.29;96736.50;1775425;80;25864;-89
2021/07/14 03:22:55;;;;;;;23.55;16.05;;;;;;;18.48;76.25;96734.86;1789875;78;25791;-87
2021/07/14 03:25:22;;;;;;;19.57;16.70;;;;;;;18.44;76.29;96733.80;1767062;79;25704;-88
2021/07/14 03:27:51;;;;;;;22.07;17.98;;;;;;;18.44;76.38;96740.63;1770977;80;25729;-87
2021/07/14 03:30:20;;;;;;;22.75;17.67;;;;;;;18.46;76.40;96737.90;1781851;79;28455;-87
2021/07/14 03:32:47;;;;;;;26.12;17.37;;;;;;;18.46;76.43;96738.44;1781518;80;25812;-89
2021/07/14 03:35:15;;;;;;;21.87;17.05;;;;;;;18.47;76.49;96735.98;1782081;80;25698;-89
2021/07/14 03:37:45;;;;;;;27.20;18.48;;;;;;;18.44;76.50;96736.53;1759672;80;25974;-88
2021/07/14 03:40:13;;;;;;;23.57;18.20;;;;;;;18.42;76.54;96740.91;1763323;80;25771;-87
2021/07/14 03:42:41;;;;;;;25.08;17.98;;;;;;;18.44;76.65;96739.27;1781397;80;28237;-87
2021/07/14 03:45:09;;;;;;;24.10;17.80;;;;;;;18.47;76.70;96733.25;1753112;80;25295;-83
2021/07/14 03:47:39;;;;;;;24.43;17.92;;;;;;;18.51;76.74;96724.75;1782124;78;25760;-88
2021/07/14 03:50:06;;;;;;;20.70;17.80;;;;;;;18.56;76.78;96721.46;1766176;80;25769;-88
2021/07/14 03:52:35;;;;;;;23.95;17.10;;;;;;;18.58;76.76;96712.47;1758147;80;25916;-88
2021/07/14 03:55:03;;;;;;;23.92;18.35;;;;;;;18.61;76.75;96719.27;1780506;80;27369;-89
2021/07/14 03:57:30;;;;;;;21.85;17.73;;;;;;;18.66;76.74;96715.16;1781794;80;25911;-89
2021/07/14 03:59:58;;;;;;;26.25;19.67;;;;;;;18.69;76.71;96711.88;1753221;80;25716;-88
2021/07/14 04:02:26;;;;;;;24.82;19.35;;;;;;;18.73;76.68;96719.77;1759873;79;27001;-84
2021/07/14 04:04:52;;;;;;;24.92;18.90;;;;;;;18.77;76.75;96720.04;1782004;80;26474;-88
2021/07/14 04:07:30;;;;;;;26.20;18.12;;;;;;;18.80;76.78;96720.31;1781653;80;27587;-84
2021/07/14 04:09:57;;;;;;;23.15;18.80;;;;;;;18.85;76.78;96721.63;1781876;80;25852;-87
2021/07/14 04:12:23;;;;;;;24.23;17.98;;;;;;;18.87;76.76;96716.70;1781571;79;25731;-88
2021/07/14 04:14:51;;;;;;;21.55;18.32;;;;;;;18.91;76.78;96716.42;1781664;80;25761;-90
2021/07/14 04:17:18;;;;;;;26.75;19.75;;;;;;;18.94;76.87;96718.61;1774049;79;25768;-87
2021/07/14 04:19:44;;;;;;;28.60;18.95;;;;;;;18.99;76.87;96717.19;1767695;80;28196;-88
2021/07/14 04:22:13;;;;;;;25.37;19.10;;;;;;;19.03;76.87;96710.07;1777931;80;26418;-87
2021/07/14 04:24:41;;;;;;;22.45;19.80;;;;;;;19.08;76.85;96715.26;1776054;78;25678;-85
2021/07/14 04:27:09;;;;;;;27.55;21.00;;;;;;;19.13;76.84;96713.84;1764174;78;25737;-87
2021/07/14 04:29:36;;;;;;;26.48;20.05;;;;;;;19.19;76.80;96715.46;1756489;78;25253;-85
2021/07/14 04:32:04;;;;;;;29.15;20.02;;;;;;;19.22;76.77;96712.14;1755875;79;27594;-89
2021/07/14 04:34:31;;;;;;;24.23;21.50;;;;;;;19.27;76.76;96710.20;1753800;78;25740;-87
2021/07/14 04:36:57;;;;;;;23.95;20.27;;;;;;;19.31;76.70;96702.25;1776210;78;26346;-86
2021/07/14 04:39:24;;;;;;;38.28;21.40;;;;;;;19.37;76.72;96709.31;1775523;78;26072;-88
2021/07/14 04:41:51;;;;;;;24.25;21.25;;;;;;;19.42;76.70;96708.73;1758735;80;25779;-90
2021/07/14 04:44:29;;;;;;;26.33;21.33;;;;;;;19.48;76.62;96707.31;1745151;80;28072;-88
2021/07/14 04:46:46;;;;;;;28.60;21.70;;;;;;;19.51;76.47;96710.34;1772402;80;26449;-83
2021/07/14 04:49:14;;;;;;;28.12;21.60;;;;;;;19.56;76.43;96715.77;1776490;80;25861;-90
2021/07/14 04:51:41;;;;;;;31.05;22.93;;;;;;;19.62;76.39;96709.71;1747944;78;26573;-87
2021/07/14 04:54:07;;;;;;;25.00;21.05;;;;;;;19.67;76.38;96709.13;1761599;80;25774;-90
2021/07/14 04:56:34;;;;;;;28.60;21.90;;;;;;;19.73;76.38;96705.23;1754486;78;27374;-86
2021/07/14 04:59:01;;;;;;;30.20;22.07;;;;;;;19.80;76.45;96706.84;1765568;79;25788;-90
2021/07/14 05:01:28;;;;;;;32.73;22.07;;;;;;;19.84;76.34;96710.63;1767969;78;26530;-88
2021/07/14 05:03:54;;;;;;;26.37;21.75;;;;;;;19.87;76.28;96714.98;1776247;80;25432;-90
2021/07/14 05:06:21;;;;;;;28.15;21.48;;;;;;;19.91;76.26;96722.08;1759768;80;25816;-88
2021/07/14 05:08:47;;;;;;;30.50;23.05;;;;;;;19.98;76.31;96733.51;1771231;79;27593;-85
2021/07/14 05:11:14;;;;;;;25.12;22.17;;;;;;;20.02;76.29;96735.95;1761026;78;25785;-89
2021/07/14 05:13:41;;;;;;;25.82;21.55;;;;;;;20.08;76.32;96740.27;1756919;80;25805;-85
2021/07/14 05:16:08;;;;;;;30.92;21.00;;;;;;;20.17;76.27;96752.77;1771619;80;25867;-89
2021/07/14 05:18:36;;;;;;;25.32;20.08;;;;;;;20.23;76.27;96745.61;1759313;78;25743;-87
2021/07/14 05:21:02;;;;;;;28.00;21.35;;;;;;;20.31;76.37;96749.08;1776216;78;28418;-89
2021/07/14 05:23:30;;;;;;;26.77;21.07;;;;;;;20.38;76.50;96743.30;1775570;78;25820;-89
2021/07/14 05:25:56;;;;;;;25.05;21.23;;;;;;;20.43;76.56;96736.38;1755077;80;25781;-89
2021/07/14 05:28:23;;;;;;;26.40;21.65;;;;;;;20.53;76.66;96735.48;1761290;80;26081;-88
2021/07/14 05:30:49;;;;;;;27.25;22.62;;;;;;;20.62;76.75;96729.61;1772011;78;25714;-84
2021/07/14 05:33:17;;;;;;;31.25;23.02;;;;;;;20.73;76.91;96716.86;1751379;78;27536;-91
2021/07/14 05:35:44;;;;;;;25.17;21.85;;;;;;;20.85;76.89;96695.87;1775980;78;25772;-87
2021/07/14 05:38:18;;;;;;;28.15;21.52;;;;;;;20.96;76.72;96686.39;1768702;79;26161;-90
2021/07/14 05:40:40;;;;;;;24.50;21.95;;;;;;;21.08;76.70;96671.68;1765079;79;26146;-88
2021/07/14 05:43:07;;;;;;;27.98;22.67;;;;;;;21.19;76.57;96662.77;1765758;78;25801;-86
2021/07/14 05:45:33;;;;;;;25.25;21.37;;;;;;;21.30;76.28;96667.55;1775470;78;27370;-87
2021/07/14 05:48:00;;;;;;;26.23;21.65;;;;;;;21.39;76.13;96665.76;1754907;80;25818;-81
2021/07/14 05:50:27;;;;;;;25.05;20.52;;;;;;;21.50;76.09;96686.45;1775881;78;25678;-86
2021/07/14 05:52:54;;;;;;;26.23;20.35;;;;;;;21.56;75.80;96700.37;1775975;78;26071;-82
2021/07/14 05:55:21;;;;;;;26.05;21.15;;;;;;;21.62;75.57;96717.56;1774679;78;25706;-88
2021/07/14 05:57:47;;;;;;;25.25;18.95;;;;;;;21.67;75.18;96726.55;1775980;78;27358;-86
2021/07/14 06:00:15;;;;;;;27.87;20.70;;;;;;;21.76;75.05;96729.44;1776244;78;25506;-87
2021/07/14 06:02:41;;;;;;;25.60;20.48;;;;;;;21.82;74.80;96717.27;1775966;78;25737;-87
2021/07/14 06:05:09;;;;;;;24.10;20.20;;;;;;;21.89;74.64;96715.75;1776386;80;25705;-88
2021/07/14 06:07:36;;;;;;;24.60;20.68;;;;;;;21.97;74.72;96701.91;1786945;78;25745;-86
2021/07/14 06:10:05;;;;;;;22.45;19.92;;;;;;;22.03;74.71;96686.16;1769909;81;27542;-88
2021/07/14 06:12:32;;;;;;;32.10;20.15;;;;;;;22.11;74.86;96667.03;1787273;80;25279;-85
2021/07/14 06:14:58;;;;;;;26.85;20.85;;;;;;;22.19;74.78;96653.98;1748540;81;25830;-87
2021/07/14 06:17:25;;;;;;;26.00;19.75;;;;;;;22.27;74.90;96635.40;1787353;78;25697;-91
2021/07/14 06:19:53;;;;;;;27.60;19.55;;;;;;;22.36;74.65;96625.88;1787109;78;25733;-88
2021/07/14 06:22:19;;;;;;;21.77;19.50;;;;;;;22.47;74.42;96610.80;1781093;78;27585;-92
2021/07/14 06:24:46;;;;;;;23.12;19.37;;;;;;;22.58;74.15;96610.83;1792797;78;25730;-89
2021/07/14 06:27:13;;;;;;;24.95;19.25;;;;;;;22.73;74.15;96617.13;1773300;80;25791;-87
2021/07/14 06:29:40;;;;;;;21.73;19.37;;;;;;;22.85;74.09;96625.14;1791873;80;25781;-87
2021/07/14 06:32:07;;;;;;;24.55;19.12;;;;;;;22.96;73.70;96631.23;1792893;80;25259;-84
2021/07/14 06:34:34;;;;;;;22.05;19.15;;;;;;;23.04;73.17;96644.28;1793054;78;27490;-86
2021/07/14 06:37:00;;;;;;;21.82;17.73;;;;;;;23.12;72.86;96657.30;1772846;80;25750;-86
2021/07/14 06:39:27;;;;;;;28.40;19.32;;;;;;;23.20;72.50;96661.25;1793188;78;26270;-90
2021/07/14 06:41:55;;;;;;;25.10;18.95;;;;;;;23.27;72.36;96658.34;1751362;80;25871;-86
2021/07/14 06:44:22;;;;;;;26.07;19.20;;;;;;;23.30;72.32;96646.71;1791553;80;25883;-91
2021/07/14 06:46:49;;;;;;;23.20;17.82;;;;;;;23.47;72.22;96660.34;1761777;80;27416;-87
2021/07/14 06:49:16;;;;;;;27.42;18.40;;;;;;;23.58;72.08;96666.71;1761711;80;25848;-88
2021/07/14 06:51:42;;;;;;;21.27;18.95;;;;;;;23.68;71.74;96672.53;1772499;80;25813;-89
2021/07/14 06:54:09;;;;;;;21.07;18.87;;;;;;;23.81;71.86;96668.90;1747142;80;25757;-87
2021/07/14 06:56:36;;;;;;;25.75;18.20;;;;;;;23.99;71.44;96662.95;1763861;80;25409;-83
2021/07/14 06:59:03;;;;;;;27.73;19.50;;;;;;;23.99;71.44;96662.95;1770095;80;27434;-84
2021/07/14 07:01:30;;;;;;;21.15;17.92;;;;;;;24.11;70.96;96663.18;1765063;80;26214;-89
2021/07/14 07:03:56;;;;;;;24.77;18.95;;;;;;;24.21;70.54;96658.77;1755006;80;25719;-88
2021/07/14 07:06:24;;;;;;;26.68;19.35;;;;;;;24.31;70.71;96663.22;1763230;80;26190;-88
2021/07/14 07:08:51;;;;;;;22.85;19.75;;;;;;;24.44;70.79;96673.34;1755072;80;25747;-88
2021/07/14 07:11:18;;;;;;;25.90;18.07;;;;;;;24.56;70.94;96665.84;1748474;80;28411;-82
2021/07/14 07:13:44;;;;;;;21.30;19.02;;;;;;;24.65;70.82;96665.30;1768880;80;26593;-88
2021/07/14 07:16:12;;;;;;;21.27;18.75;;;;;;;24.74;70.72;96660.64;1747970;80;36122;-87
2021/07/14 07:18:38;;;;;;;21.95;18.37;;;;;;;24.86;70.87;96662.78;1768924;80;25617;-88
2021/07/14 07:21:07;;;;;;;23.87;18.70;;;;;;;24.95;70.66;96656.74;1764450;80;25823;-88
2021/07/14 07:23:36;;;;;;;23.77;17.77;;;;;;;25.04;70.56;96664.47;1768054;80;27599;-89
2021/07/14 07:26:04;;;;;;;22.45;17.57;;;;;;;25.10;70.31;96663.19;1757992;80;25724;-89
2021/07/14 07:28:35;;;;;;;21.87;17.50;;;;;;;25.20;69.64;96655.97;1755097;80;25816;-91
2021/07/14 07:30:59;;;;;;;21.68;17.55;;;;;;;25.37;69.23;96657.35;1776198;80;26368;-90
2021/07/14 07:33:26;;;;;;;19.95;16.85;;;;;;;25.53;68.86;96655.49;1776327;80;25725;-85
2021/07/14 07:35:52;;;;;;;20.05;17.52;;;;;;;25.65;69.02;96651.53;1768475;80;27983;-89
2021/07/14 07:38:19;;;;;;;20.80;16.52;;;;;;;25.76;68.74;96654.20;1762757;80;25710;-87
2021/07/14 07:40:47;;;;;;;28.07;17.65;;;;;;;25.89;68.54;96654.59;1754674;80;25807;-89
2021/07/14 07:43:13;;;;;;;26.42;16.67;;;;;;;26.01;68.39;96642.29;1776106;80;26160;-88
2021/07/14 07:45:40;;;;;;;22.62;16.67;;;;;;;26.15;68.14;96645.67;1754598;80;25485;-86
2021/07/14 07:48:07;;;;;;;22.35;15.90;;;;;;;26.25;67.14;96643.11;1763832;80;28226;-88
2021/07/14 07:50:33;;;;;;;21.05;14.90;;;;;;;26.36;66.34;96646.36;1767359;80;25669;-86
2021/07/14 07:53:00;;;;;;;21.17;15.25;;;;;;;26.51;65.94;96647.20;1755067;80;25709;-87
2021/07/14 07:55:27;;;;;;;21.97;15.05;;;;;;;26.68;65.31;96653.24;1757233;80;25769;-85
2021/07/14 07:57:54;;;;;;;21.95;15.03;;;;;;;26.86;64.86;96655.58;1773758;80;25781;-87
2021/07/14 08:00:21;;;;;;;22.95;15.15;;;;;;;27.12;64.38;96647.72;1776203;80;27586;-85
2021/07/14 08:02:48;;;;;;;19.75;14.07;;;;;;;27.40;63.68;96655.75;1771712;80;25268;-84
2021/07/14 08:05:15;;;;;;;18.30;13.48;;;;;;;27.74;63.19;96651.09;1770467;80;25773;-85
2021/07/14 08:07:41;;;;;;;20.57;13.40;;;;;;;28.08;62.57;96652.71;1776551;80;26019;-86
2021/07/14 08:10:10;;;;;;;16.48;12.23;;;;;;;28.44;62.43;96649.23;1786956;80;25275;-86
2021/07/14 08:12:37;;;;;;;16.25;12.25;;;;;;;28.75;61.17;96650.87;1787264;80;27341;-86
2021/07/14 08:15:06;;;;;;;16.60;12.70;;;;;;;29.05;60.27;96651.48;1769550;81;25907;-86
2021/07/14 08:17:32;;;;;;;25.15;13.80;;;;;;;29.31;59.75;96656.66;1787216;79;25670;-85
2021/07/14 08:19:59;;;;;;;18.40;13.22;;;;;;;29.61;59.49;96660.77;1770043;80;25790;-86
2021/07/14 08:22:26;;;;;;;17.67;12.80;;;;;;;29.90;58.68;96661.02;1755958;80;26250;-86
2021/07/14 08:24:52;;;;;;;20.02;12.98;;;;;;;30.14;58.25;96658.73;1760592;80;28311;-86
2021/07/14 08:27:20;;;;;;;14.00;12.13;;;;;;;30.38;57.73;96657.20;1768912;80;25737;-86
2021/07/14 08:29:47;;;;;;;17.02;13.38;;;;;;;30.63;57.22;96656.48;1780171;80;25208;-86
2021/07/14 08:32:14;;;;;;;16.15;12.50;;;;;;;30.85;57.39;96648.66;1771840;80;25562;-88
2021/07/14 08:34:40;;;;;;;17.87;13.08;;;;;;;31.04;56.85;96653.70;1755347;80;25780;-85
2021/07/14 08:37:07;;;;;;;18.60;11.97;;;;;;;31.30;56.82;96649.55;1775031;80;27483;-86
2021/07/14 08:39:35;;;;;;;14.28;12.05;;;;;;;31.49;56.29;96646.80;1753684;80;25804;-86
2021/07/14 08:42:04;;;;;;;14.13;11.63;;;;;;;31.78;55.48;96647.64;1784461;80;26603;-87
2021/07/14 08:44:33;;;;;;;17.62;12.10;;;;;;;32.05;55.41;96650.58;1766988;80;25986;-86
2021/07/14 08:47:01;;;;;;;12.95;10.63;;;;;;;32.22;55.05;96652.95;1754549;80;25891;-86
2021/07/14 08:49:27;;;;;;;14.85;11.53;;;;;;;32.12;54.00;96659.11;1770227;80;27592;-86
2021/07/14 08:51:54;;;;;;;26.37;12.65;;;;;;;31.94;53.26;96666.30;1785195;80;25757;-87
2021/07/14 08:54:21;;;;;;;14.95;11.50;;;;;;;31.74;52.80;96670.50;1771727;80;25856;-87
2021/07/14 08:56:51;;;;;;;15.40;11.48;;;;;;;31.57;53.01;96670.87;1776016;80;25867;-85
2021/07/14 08:59:19;;;;;;;13.38;11.35;;;;;;;31.40;52.72;96671.28;1765847;80;25818;-86
2021/07/14 09:01:48;;;;;;;19.27;11.95;;;;;;;31.29;52.64;96669.64;1763837;80;27535;-85
2021/07/14 09:04:14;;;;;;;16.95;12.30;;;;;;;31.22;52.61;96672.86;1785431;80;25752;-86
2021/07/14 09:06:41;;;;;;;17.27;12.33;;;;;;;31.13;52.28;96676.66;1785241;80;25741;-86
2021/07/14 09:09:08;;;;;;;19.25;12.98;;;;;;;31.06;52.39;96677.84;1785416;80;25701;-86
2021/07/14 09:11:54;;;;;;;18.82;12.78;;;;;;;31.01;52.47;96693.46;1785165;80;25693;-85
2021/07/14 09:14:34;;;;;;;17.17;13.30;;;;;;;30.97;52.29;96686.98;1763433;80;28098;-85
2021/07/14 09:17:24;;;;;;;16.82;11.73;;;;;;;30.93;52.17;96691.65;1784724;80;25706;-86
2021/07/14 09:20:13;;;;;;;14.83;12.30;;;;;;;30.91;52.08;96689.02;1776055;80;25776;-87
2021/07/14 09:22:41;;;;;;;14.25;12.15;;;;;;;30.79;52.87;96694.88;1762144;79;26163;-85
2021/07/14 09:25:13;;;;;;;15.13;12.63;;;;;;;30.68;53.20;96697.98;1767131;80;26257;-86
2021/07/14 09:27:55;;;;;;;;;;;;;;;30.66;53.81;96703.71;1783713;80;27517;-86
2021/07/14 09:30:23;;;;;;;17.90;12.95;;;;;;;30.62;54.53;96704.19;1785078;80;26264;-86
2021/07/14 09:33:03;;;;;;;14.93;12.13;;;;;;;30.56;55.07;96704.22;1777088;79;25768;-85
2021/07/14 09:35:49;;;;;;;14.58;12.43;;;;;;;30.55;55.37;96695.66;1753536;80;25693;-85
2021/07/14 09:38:26;;;;;;;14.85;13.03;;;;;;;30.49;54.83;96690.08;1763614;80;25807;-86
2021/07/14 09:41:07;;;;;;;14.20;12.70;;;;;;;30.47;54.82;96692.41;1760874;80;27407;-86
2021/07/14 09:43:44;;;;;;;18.90;12.05;;;;;;;30.70;55.58;96697.05;1765269;80;25781;-86
2021/07/14 09:46:15;;;;;;;17.20;11.97;;;;;;;31.14;54.98;96699.77;1780513;80;25708;-84
2021/07/14 09:48:45;;;;;;;15.35;11.30;;;;;;;31.58;53.98;96697.60;1753893;80;26064;-86
2021/07/14 09:51:20;;;;;;;13.80;11.00;;;;;;;31.93;53.00;96702.36;1778985;80;25631;-87
2021/07/14 09:53:54;;;;;;;18.37;10.45;;;;;;;32.24;51.26;96709.23;1783982;80;28312;-89
2021/07/14 09:56:27;;;;;;;16.55;11.25;;;;;;;32.39;50.07;96704.12;1762571;80;25686;-86
2021/07/14 09:59:15;;;;;;;12.88;10.43;;;;;;;32.42;50.21;96707.58;1784829;80;25775;-86
2021/07/14 10:01:48;;;;;;;15.58;11.78;;;;;;;32.43;49.51;96709.20;1777757;80;25678;-86
2021/07/14 10:04:36;;;;;;;16.60;11.65;;;;;;;32.43;48.74;96709.78;1782268;80;25804;-86
2021/07/14 10:07:23;;;;;;;13.30;10.95;;;;;;;32.30;48.58;96702.16;1790292;79;27366;-86
2021/07/14 10:09:49;;;;;;;15.32;10.68;;;;;;;32.15;48.87;96708.01;1776161;80;25773;-87
2021/07/14 10:12:31;;;;;;;14.50;10.53;;;;;;;32.22;49.38;96706.58;1790188;80;25841;-86
2021/07/14 10:15:20;;;;;;;14.80;11.95;;;;;;;32.39;49.42;96704.12;1790615;80;26523;-87
2021/07/14 10:17:52;;;;;;;16.55;11.38;;;;;;;32.68;49.75;96704.66;1752758;81;25693;-89
2021/07/14 10:20:29;;;;;;;17.60;10.55;;;;;;;32.94;49.36;96707.55;1790485;80;27358;-85
2021/07/14 10:23:10;;;;;;;12.10;10.45;;;;;;;33.11;48.04;96704.23;1790069;80;25723;-87
2021/07/14 10:25:41;;;;;;;14.98;11.22;;;;;;;33.33;47.81;96709.59;1774096;80;25646;-87
2021/07/14 10:28:12;;;;;;;13.35;10.45;;;;;;;33.55;47.44;96706.55;1766194;80;25774;-86
2021/07/14 10:30:41;;;;;;;14.33;10.20;;;;;;;33.74;46.54;96708.40;1762968;80;25313;-87
2021/07/14 10:33:10;;;;;;;16.75;10.90;;;;;;;33.83;46.71;96705.55;1774126;80;27868;-87
2021/07/14 10:35:41;;;;;;;13.32;10.90;;;;;;;33.91;46.49;96713.48;1774134;80;26462;-87
2021/07/14 10:38:23;;;;;;;14.35;10.25;;;;;;;34.08;45.45;96705.07;1785002;80;25653;-86
2021/07/14 10:40:53;;;;;;;13.00;10.63;;;;;;;34.19;45.90;96710.20;1784035;80;25751;-90
2021/07/14 10:43:25;;;;;;;16.17;10.45;;;;;;;34.28;45.76;96705.16;1764369;80;25701;-88
2021/07/14 10:45:52;;;;;;;11.65;9.98;;;;;;;34.38;45.26;96706.47;1762719;80;27086;-84
2021/07/14 10:48:23;;;;;;;20.20;10.82;;;;;;;34.44;44.59;96708.53;1784853;80;25736;-88
2021/07/14 10:50:54;;;;;;;13.33;11.53;;;;;;;34.50;44.41;96705.61;1784905;80;25224;-87
2021/07/14 10:53:23;;;;;;;17.48;10.90;;;;;;;34.49;44.54;96699.80;1762867;80;25701;-87
2021/07/14 10:55:53;;;;;;;15.23;10.50;;;;;;;34.45;44.55;96715.75;1766927;80;25798;-84
2021/07/14 10:58:23;;;;;;;12.13;10.80;;;;;;;34.27;44.49;96706.35;1775038;80;28247;-87
2021/07/14 11:00:49;;;;;;;12.20;10.25;;;;;;;34.19;44.70;96707.41;1770411;80;25858;-85
2021/07/14 11:03:44;;;;;;;16.75;9.78;;;;;;;34.29;44.38;96703.98;1784534;80;25715;-87
2021/07/14 11:06:15;;;;;;;14.93;10.28;;;;;;;34.40;43.21;96696.50;1784894;80;25749;-87
2021/07/14 11:08:48;;;;;;;14.38;11.03;;;;;;;34.58;43.20;96696.08;1790165;80;25688;-85
2021/07/14 11:11:19;;;;;;;13.88;10.40;;;;;;;34.74;42.45;96692.23;1790628;80;27509;-91
2021/07/14 11:14:06;;;;;;;13.33;10.80;;;;;;;34.95;42.19;96695.25;1790435;80;25728;-89
2021/07/14 11:16:38;;;;;;;14.05;10.13;;;;;;;35.15;43.08;96702.23;1771001;80;25652;-87
2021/07/14 11:19:11;;;;;;;11.25;10.03;;;;;;;35.24;41.71;96693.50;1790191;80;25663;-90
2021/07/14 11:21:49;;;;;;;14.47;10.28;;;;;;;35.23;41.33;96688.48;1790514;80;25685;-86
2021/07/14 11:24:46;;;;;;;12.65;9.75;;;;;;;35.30;41.54;96691.95;1785964;79;27544;-88
2021/07/14 11:27:30;;;;;;;15.23;10.10;;;;;;;35.45;40.98;96688.66;1767906;81;25707;-88
2021/07/14 11:30:08;;;;;;;14.85;10.53;;;;;;;35.58;40.19;96675.91;1770731;79;25721;-85
2021/07/14 11:32:46;;;;;;;13.22;10.38;;;;;;;35.58;40.34;96684.33;1775096;79;25793;-88
2021/07/14 11:35:18;;;;;;;16.15;9.80;;;;;;;35.65;40.28;96684.36;1788048;80;25651;-89
2021/07/14 11:37:49;;;;;;;14.50;9.70;;;;;;;35.60;39.36;96683.35;1787985;80;27327;-86
2021/07/14 11:40:23;;;;;;;;;;;;;;;35.59;39.31;96685.95;1789980;80;25714;-86
2021/07/14 11:43:13;;;;;;;13.93;9.40;;;;;;;35.53;38.16;96691.70;1786962;80;25706;-86